sensor_id;sensor_type;location;lat;lon;timestamp;temperature;humidity
24426;DHT22;12611;44.446;26.000;2022-10-12T00:00:59;18.30;77.70
24426;DHT22;12611;44.446;26.000;2022-10-12T00:03:28;18.30;78.20
24426;DHT22;12611;44.446;26.000;2022-10-12T00:06:01;18.20;78.00
24426;DHT22;12611;44.446;26.000;2022-10-12T00:08:34;18.30;78.00
24426;DHT22;12611;44.446;26.000;2022-10-12T00:11:03;18.20;77.80
24426;DHT22;12611;44.446;26.000;2022-10-12T00:13:31;18.20;77.80
24426;DHT22;12611;44.446;26.000;2022-10-12T00:16:02;18.20;77.80
24426;DHT22;12611;44.446;26.000;2022-10-12T00:18:31;18.20;77.70
24426;DHT22;12611;44.446;26.000;2022-10-12T00:21:00;18.20;77.60
24426;DHT22;12611;44.446;26.000;2022-10-12T00:23:29;18.30;77.70
24426;DHT22;12611;44.446;26.000;2022-10-12T00:26:02;18.20;77.50
24426;DHT22;12611;44.446;26.000;2022-10-12T00:28:31;18.30;77.70
24426;DHT22;12611;44.446;26.000;2022-10-12T00:31:00;18.20;77.50
24426;DHT22;12611;44.446;26.000;2022-10-12T00:33:29;18.20;77.50
24426;DHT22;12611;44.446;26.000;2022-10-12T00:35:57;18.20;77.50
24426;DHT22;12611;44.446;26.000;2022-10-12T00:38:25;18.20;77.50
24426;DHT22;12611;44.446;26.000;2022-10-12T00:40:53;18.20;77.50
24426;DHT22;12611;44.446;26.000;2022-10-12T00:43:29;18.20;77.40
24426;DHT22;12611;44.446;26.000;2022-10-12T00:46:01;18.20;77.40
24426;DHT22;12611;44.446;26.000;2022-10-12T00:48:30;18.20;77.40
24426;DHT22;12611;44.446;26.000;2022-10-12T00:51:00;18.20;77.30
24426;DHT22;12611;44.446;26.000;2022-10-12T00:53:31;18.10;77.40
24426;DHT22;12611;44.446;26.000;2022-10-12T00:56:06;18.10;77.50
24426;DHT22;12611;44.446;26.000;2022-10-12T00:58:39;18.10;77.50
24426;DHT22;12611;44.446;26.000;2022-10-12T01:01:07;18.10;77.50
24426;DHT22;12611;44.446;26.000;2022-10-12T01:03:36;18.10;77.50
24426;DHT22;12611;44.446;26.000;2022-10-12T01:06:05;18.00;77.50
24426;DHT22;12611;44.446;26.000;2022-10-12T01:08:35;18.00;77.70
24426;DHT22;12611;44.446;26.000;2022-10-12T01:11:03;18.00;78.10
24426;DHT22;12611;44.446;26.000;2022-10-12T01:13:32;18.00;78.30
24426;DHT22;12611;44.446;26.000;2022-10-12T01:16:07;18.00;78.80
24426;DHT22;12611;44.446;26.000;2022-10-12T01:18:43;18.00;78.80
24426;DHT22;12611;44.446;26.000;2022-10-12T01:21:18;17.90;79.10
24426;DHT22;12611;44.446;26.000;2022-10-12T01:24:24;17.90;79.40
24426;DHT22;12611;44.446;26.000;2022-10-12T01:27:02;17.90;79.70
24426;DHT22;12611;44.446;26.000;2022-10-12T01:29:52;17.80;80.00
24426;DHT22;12611;44.446;26.000;2022-10-12T01:32:24;17.80;80.40
24426;DHT22;12611;44.446;26.000;2022-10-12T01:34:59;17.80;80.80
24426;DHT22;12611;44.446;26.000;2022-10-12T01:37:34;17.80;80.80
24426;DHT22;12611;44.446;26.000;2022-10-12T01:40:09;17.70;81.40
24426;DHT22;12611;44.446;26.000;2022-10-12T01:42:41;17.70;81.60
24426;DHT22;12611;44.446;26.000;2022-10-12T01:45:14;17.70;81.60
24426;DHT22;12611;44.446;26.000;2022-10-12T01:47:45;17.60;81.70
24426;DHT22;12611;44.446;26.000;2022-10-12T01:50:15;17.60;81.90
24426;DHT22;12611;44.446;26.000;2022-10-12T01:52:52;17.60;81.90
24426;DHT22;12611;44.446;26.000;2022-10-12T01:55:35;17.60;81.80
24426;DHT22;12611;44.446;26.000;2022-10-12T01:58:24;17.60;82.00
24426;DHT22;12611;44.446;26.000;2022-10-12T02:01:01;17.60;82.20
24426;DHT22;12611;44.446;26.000;2022-10-12T02:03:35;17.60;82.50
24426;DHT22;12611;44.446;26.000;2022-10-12T02:06:11;17.60;82.40
24426;DHT22;12611;44.446;26.000;2022-10-12T02:08:44;17.60;82.30
24426;DHT22;12611;44.446;26.000;2022-10-12T02:11:15;17.60;82.60
24426;DHT22;12611;44.446;26.000;2022-10-12T02:13:49;17.60;82.50
24426;DHT22;12611;44.446;26.000;2022-10-12T02:16:21;17.60;82.50
24426;DHT22;12611;44.446;26.000;2022-10-12T02:18:53;17.60;82.60
24426;DHT22;12611;44.446;26.000;2022-10-12T02:21:24;17.60;82.90
24426;DHT22;12611;44.446;26.000;2022-10-12T02:23:55;17.60;82.90
24426;DHT22;12611;44.446;26.000;2022-10-12T02:26:25;17.50;82.90
24426;DHT22;12611;44.446;26.000;2022-10-12T02:28:55;17.60;83.00
24426;DHT22;12611;44.446;26.000;2022-10-12T02:31:33;17.50;83.10
24426;DHT22;12611;44.446;26.000;2022-10-12T02:34:07;17.50;83.00
24426;DHT22;12611;44.446;26.000;2022-10-12T02:36:40;17.50;83.20
24426;DHT22;12611;44.446;26.000;2022-10-12T02:39:13;17.50;83.30
24426;DHT22;12611;44.446;26.000;2022-10-12T02:41:48;17.50;83.30
24426;DHT22;12611;44.446;26.000;2022-10-12T02:44:19;17.50;83.30
24426;DHT22;12611;44.446;26.000;2022-10-12T02:46:50;17.50;83.20
24426;DHT22;12611;44.446;26.000;2022-10-12T02:49:20;17.50;83.30
24426;DHT22;12611;44.446;26.000;2022-10-12T02:51:50;17.50;83.40
24426;DHT22;12611;44.446;26.000;2022-10-12T02:54:19;17.60;83.50
24426;DHT22;12611;44.446;26.000;2022-10-12T02:56:47;17.50;83.60
24426;DHT22;12611;44.446;26.000;2022-10-12T02:59:17;17.50;83.60
24426;DHT22;12611;44.446;26.000;2022-10-12T03:01:45;17.50;83.70
24426;DHT22;12611;44.446;26.000;2022-10-12T03:04:15;17.60;83.70
24426;DHT22;12611;44.446;26.000;2022-10-12T03:06:43;17.50;84.50
24426;DHT22;12611;44.446;26.000;2022-10-12T03:09:12;17.60;83.80
24426;DHT22;12611;44.446;26.000;2022-10-12T03:11:40;17.60;83.80
24426;DHT22;12611;44.446;26.000;2022-10-12T03:14:10;17.60;83.90
24426;DHT22;12611;44.446;26.000;2022-10-12T03:16:39;17.60;83.90
24426;DHT22;12611;44.446;26.000;2022-10-12T03:19:07;17.60;83.90
24426;DHT22;12611;44.446;26.000;2022-10-12T03:21:37;17.60;83.90
24426;DHT22;12611;44.446;26.000;2022-10-12T03:24:06;17.60;83.90
24426;DHT22;12611;44.446;26.000;2022-10-12T03:26:34;17.60;84.00
24426;DHT22;12611;44.446;26.000;2022-10-12T03:29:02;17.60;84.10
24426;DHT22;12611;44.446;26.000;2022-10-12T03:31:31;17.60;84.10
24426;DHT22;12611;44.446;26.000;2022-10-12T03:33:59;17.60;84.10
24426;DHT22;12611;44.446;26.000;2022-10-12T03:36:27;17.60;84.10
24426;DHT22;12611;44.446;26.000;2022-10-12T03:38:58;17.50;84.10
24426;DHT22;12611;44.446;26.000;2022-10-12T03:41:26;17.50;84.00
24426;DHT22;12611;44.446;26.000;2022-10-12T03:43:54;17.50;83.90
24426;DHT22;12611;44.446;26.000;2022-10-12T03:46:22;17.50;84.00
24426;DHT22;12611;44.446;26.000;2022-10-12T03:48:51;17.40;84.00
24426;DHT22;12611;44.446;26.000;2022-10-12T03:51:19;17.40;83.90
24426;DHT22;12611;44.446;26.000;2022-10-12T03:53:47;17.40;83.90
24426;DHT22;12611;44.446;26.000;2022-10-12T03:56:17;17.40;83.80
24426;DHT22;12611;44.446;26.000;2022-10-12T03:58:45;17.40;84.70
24426;DHT22;12611;44.446;26.000;2022-10-12T04:01:14;17.30;83.80
24426;DHT22;12611;44.446;26.000;2022-10-12T04:03:42;17.30;84.00
24426;DHT22;12611;44.446;26.000;2022-10-12T04:06:10;17.30;84.20
24426;DHT22;12611;44.446;26.000;2022-10-12T04:08:38;17.30;84.40
24426;DHT22;12611;44.446;26.000;2022-10-12T04:11:07;17.20;85.50
24426;DHT22;12611;44.446;26.000;2022-10-12T04:13:36;17.20;85.70
24426;DHT22;12611;44.446;26.000;2022-10-12T04:16:06;17.20;86.30
24426;DHT22;12611;44.446;26.000;2022-10-12T04:18:34;17.10;86.30
24426;DHT22;12611;44.446;26.000;2022-10-12T04:21:05;17.00;86.90
24426;DHT22;12611;44.446;26.000;2022-10-12T04:23:36;17.00;87.20
24426;DHT22;12611;44.446;26.000;2022-10-12T04:26:04;17.00;87.60
24426;DHT22;12611;44.446;26.000;2022-10-12T04:28:33;16.90;87.50
24426;DHT22;12611;44.446;26.000;2022-10-12T04:31:02;16.90;88.00
24426;DHT22;12611;44.446;26.000;2022-10-12T04:33:31;16.90;88.30
24426;DHT22;12611;44.446;26.000;2022-10-12T04:35:59;16.90;88.50
24426;DHT22;12611;44.446;26.000;2022-10-12T04:38:27;16.80;88.40
24426;DHT22;12611;44.446;26.000;2022-10-12T04:40:55;16.80;89.20
24426;DHT22;12611;44.446;26.000;2022-10-12T04:43:24;16.80;88.30
24426;DHT22;12611;44.446;26.000;2022-10-12T04:45:53;16.80;88.40
24426;DHT22;12611;44.446;26.000;2022-10-12T04:48:24;16.80;89.00
24426;DHT22;12611;44.446;26.000;2022-10-12T04:50:53;16.80;89.40
24426;DHT22;12611;44.446;26.000;2022-10-12T04:53:21;16.80;89.90
24426;DHT22;12611;44.446;26.000;2022-10-12T04:55:49;16.80;90.00
24426;DHT22;12611;44.446;26.000;2022-10-12T04:58:18;16.80;90.00
24426;DHT22;12611;44.446;26.000;2022-10-12T05:00:47;16.70;90.00
24426;DHT22;12611;44.446;26.000;2022-10-12T05:03:15;16.70;90.00
24426;DHT22;12611;44.446;26.000;2022-10-12T05:05:45;16.70;90.40
24426;DHT22;12611;44.446;26.000;2022-10-12T05:08:13;16.70;90.40
24426;DHT22;12611;44.446;26.000;2022-10-12T05:10:42;16.70;90.40
24426;DHT22;12611;44.446;26.000;2022-10-12T05:13:12;16.70;90.30
24426;DHT22;12611;44.446;26.000;2022-10-12T05:15:41;16.70;90.50
24426;DHT22;12611;44.446;26.000;2022-10-12T05:18:09;16.70;90.40
24426;DHT22;12611;44.446;26.000;2022-10-12T05:20:37;16.70;90.50
24426;DHT22;12611;44.446;26.000;2022-10-12T05:23:09;16.70;90.60
24426;DHT22;12611;44.446;26.000;2022-10-12T05:25:37;16.70;90.70
24426;DHT22;12611;44.446;26.000;2022-10-12T05:28:06;16.70;90.70
24426;DHT22;12611;44.446;26.000;2022-10-12T05:30:34;16.70;90.60
24426;DHT22;12611;44.446;26.000;2022-10-12T05:33:02;16.70;90.50
24426;DHT22;12611;44.446;26.000;2022-10-12T05:35:31;16.70;90.50
24426;DHT22;12611;44.446;26.000;2022-10-12T05:37:59;16.70;90.50
24426;DHT22;12611;44.446;26.000;2022-10-12T05:40:29;16.80;90.60
24426;DHT22;12611;44.446;26.000;2022-10-12T05:42:57;16.80;90.50
24426;DHT22;12611;44.446;26.000;2022-10-12T05:45:25;16.80;90.70
24426;DHT22;12611;44.446;26.000;2022-10-12T05:47:53;16.80;90.70
24426;DHT22;12611;44.446;26.000;2022-10-12T05:50:22;16.80;90.70
24426;DHT22;12611;44.446;26.000;2022-10-12T05:52:50;16.80;91.00
24426;DHT22;12611;44.446;26.000;2022-10-12T05:55:18;16.80;91.00
24426;DHT22;12611;44.446;26.000;2022-10-12T05:57:48;16.80;91.00
24426;DHT22;12611;44.446;26.000;2022-10-12T06:00:18;16.80;91.00
24426;DHT22;12611;44.446;26.000;2022-10-12T06:02:49;16.80;91.10
24426;DHT22;12611;44.446;26.000;2022-10-12T06:05:17;16.80;91.00
24426;DHT22;12611;44.446;26.000;2022-10-12T06:07:46;16.80;90.90
24426;DHT22;12611;44.446;26.000;2022-10-12T06:10:14;16.80;91.00
24426;DHT22;12611;44.446;26.000;2022-10-12T06:12:42;16.90;91.00
24426;DHT22;12611;44.446;26.000;2022-10-12T06:15:12;16.90;91.00
24426;DHT22;12611;44.446;26.000;2022-10-12T06:17:40;16.90;90.90
24426;DHT22;12611;44.446;26.000;2022-10-12T06:20:09;17.00;91.10
24426;DHT22;12611;44.446;26.000;2022-10-12T06:22:38;16.90;91.00
24426;DHT22;12611;44.446;26.000;2022-10-12T06:25:07;17.00;91.00
24426;DHT22;12611;44.446;26.000;2022-10-12T06:27:36;16.90;91.20
24426;DHT22;12611;44.446;26.000;2022-10-12T06:30:05;17.00;90.70
24426;DHT22;12611;44.446;26.000;2022-10-12T06:32:35;17.00;90.70
24426;DHT22;12611;44.446;26.000;2022-10-12T06:35:04;17.00;90.60
24426;DHT22;12611;44.446;26.000;2022-10-12T06:37:36;17.00;90.50
24426;DHT22;12611;44.446;26.000;2022-10-12T06:40:28;17.10;90.40
24426;DHT22;12611;44.446;26.000;2022-10-12T06:42:57;17.10;90.30
24426;DHT22;12611;44.446;26.000;2022-10-12T06:45:29;17.10;90.20
24426;DHT22;12611;44.446;26.000;2022-10-12T06:47:59;17.20;90.50
24426;DHT22;12611;44.446;26.000;2022-10-12T06:50:27;17.30;90.20
24426;DHT22;12611;44.446;26.000;2022-10-12T06:52:55;17.30;90.10
24426;DHT22;12611;44.446;26.000;2022-10-12T06:55:24;17.40;90.00
24426;DHT22;12611;44.446;26.000;2022-10-12T06:57:54;17.40;89.70
24426;DHT22;12611;44.446;26.000;2022-10-12T07:00:22;17.40;89.30
24426;DHT22;12611;44.446;26.000;2022-10-12T07:02:51;17.40;89.10
24426;DHT22;12611;44.446;26.000;2022-10-12T07:05:22;17.50;88.90
24426;DHT22;12611;44.446;26.000;2022-10-12T07:07:51;17.50;88.70
24426;DHT22;12611;44.446;26.000;2022-10-12T07:10:19;17.60;88.50
24426;DHT22;12611;44.446;26.000;2022-10-12T07:12:47;17.60;88.50
24426;DHT22;12611;44.446;26.000;2022-10-12T07:15:16;17.70;88.40
24426;DHT22;12611;44.446;26.000;2022-10-12T07:17:44;17.80;88.40
24426;DHT22;12611;44.446;26.000;2022-10-12T07:20:13;17.80;87.60
24426;DHT22;12611;44.446;26.000;2022-10-12T07:22:42;17.80;86.90
24426;DHT22;12611;44.446;26.000;2022-10-12T07:25:11;17.90;87.00
24426;DHT22;12611;44.446;26.000;2022-10-12T07:27:39;17.90;86.40
24426;DHT22;12611;44.446;26.000;2022-10-12T07:30:09;18.00;86.50
24426;DHT22;12611;44.446;26.000;2022-10-12T07:32:38;18.00;86.50
24426;DHT22;12611;44.446;26.000;2022-10-12T07:35:08;18.10;86.30
24426;DHT22;12611;44.446;26.000;2022-10-12T07:37:36;18.20;86.10
24426;DHT22;12611;44.446;26.000;2022-10-12T07:40:08;18.30;86.00
24426;DHT22;12611;44.446;26.000;2022-10-12T07:42:36;18.30;85.90
24426;DHT22;12611;44.446;26.000;2022-10-12T07:45:24;18.40;86.70
24426;DHT22;12611;44.446;26.000;2022-10-12T07:47:54;18.50;85.40
24426;DHT22;12611;44.446;26.000;2022-10-12T07:50:23;18.60;85.30
24426;DHT22;12611;44.446;26.000;2022-10-12T07:52:52;18.60;85.00
24426;DHT22;12611;44.446;26.000;2022-10-12T07:55:21;18.70;84.70
24426;DHT22;12611;44.446;26.000;2022-10-12T07:57:50;18.80;84.80
24426;DHT22;12611;44.446;26.000;2022-10-12T08:00:18;18.80;84.40
24426;DHT22;12611;44.446;26.000;2022-10-12T08:02:48;18.90;84.10
24426;DHT22;12611;44.446;26.000;2022-10-12T08:05:16;19.00;83.90
24426;DHT22;12611;44.446;26.000;2022-10-12T08:07:47;19.00;83.50
24426;DHT22;12611;44.446;26.000;2022-10-12T08:10:16;19.00;83.00
24426;DHT22;12611;44.446;26.000;2022-10-12T08:12:46;19.10;82.70
24426;DHT22;12611;44.446;26.000;2022-10-12T08:15:18;19.10;83.30
24426;DHT22;12611;44.446;26.000;2022-10-12T08:17:46;19.20;82.70
24426;DHT22;12611;44.446;26.000;2022-10-12T08:20:15;19.20;82.20
24426;DHT22;12611;44.446;26.000;2022-10-12T08:22:43;19.30;82.20
24426;DHT22;12611;44.446;26.000;2022-10-12T08:25:11;19.40;82.20
24426;DHT22;12611;44.446;26.000;2022-10-12T08:27:40;19.50;82.20
24426;DHT22;12611;44.446;26.000;2022-10-12T08:30:11;19.50;81.40
24426;DHT22;12611;44.446;26.000;2022-10-12T08:32:39;19.50;80.20
24426;DHT22;12611;44.446;26.000;2022-10-12T08:35:08;19.60;80.70
24426;DHT22;12611;44.446;26.000;2022-10-12T08:37:36;19.70;80.80
24426;DHT22;12611;44.446;26.000;2022-10-12T08:40:07;19.70;80.70
24426;DHT22;12611;44.446;26.000;2022-10-12T08:42:43;19.70;80.30
24426;DHT22;12611;44.446;26.000;2022-10-12T08:45:26;19.80;80.20
24426;DHT22;12611;44.446;26.000;2022-10-12T08:48:00;19.80;79.80
24426;DHT22;12611;44.446;26.000;2022-10-12T08:50:34;19.90;79.90
24426;DHT22;12611;44.446;26.000;2022-10-12T08:53:19;19.90;79.70
24426;DHT22;12611;44.446;26.000;2022-10-12T08:55:48;19.90;79.40
24426;DHT22;12611;44.446;26.000;2022-10-12T08:58:19;20.00;79.40
24426;DHT22;12611;44.446;26.000;2022-10-12T09:00:58;20.00;79.40
24426;DHT22;12611;44.446;26.000;2022-10-12T09:03:41;20.00;79.70
24426;DHT22;12611;44.446;26.000;2022-10-12T09:06:17;20.10;78.70
24426;DHT22;12611;44.446;26.000;2022-10-12T09:08:58;20.10;78.20
24426;DHT22;12611;44.446;26.000;2022-10-12T09:11:43;20.10;77.50
24426;DHT22;12611;44.446;26.000;2022-10-12T09:14:16;20.20;77.50
24426;DHT22;12611;44.446;26.000;2022-10-12T09:16:47;20.20;77.30
24426;DHT22;12611;44.446;26.000;2022-10-12T09:19:21;20.20;77.50
24426;DHT22;12611;44.446;26.000;2022-10-12T09:21:51;20.30;77.60
24426;DHT22;12611;44.446;26.000;2022-10-12T09:24:23;20.40;77.50
24426;DHT22;12611;44.446;26.000;2022-10-12T09:26:56;20.40;77.40
24426;DHT22;12611;44.446;26.000;2022-10-12T09:29:35;20.50;77.40
24426;DHT22;12611;44.446;26.000;2022-10-12T09:35:11;20.50;76.80
24426;DHT22;12611;44.446;26.000;2022-10-12T09:37:52;20.50;76.70
24426;DHT22;12611;44.446;26.000;2022-10-12T09:40:29;20.60;76.60
24426;DHT22;12611;44.446;26.000;2022-10-12T09:43:01;20.60;76.40
24426;DHT22;12611;44.446;26.000;2022-10-12T09:45:32;20.60;76.40
24426;DHT22;12611;44.446;26.000;2022-10-12T09:48:16;20.70;76.20
24426;DHT22;12611;44.446;26.000;2022-10-12T09:50:49;20.70;76.00
24426;DHT22;12611;44.446;26.000;2022-10-12T09:53:30;20.70;75.80
24426;DHT22;12611;44.446;26.000;2022-10-12T09:56:05;20.70;75.10
24426;DHT22;12611;44.446;26.000;2022-10-12T09:58:48;20.80;75.40
24426;DHT22;12611;44.446;26.000;2022-10-12T10:01:21;20.80;75.30
24426;DHT22;12611;44.446;26.000;2022-10-12T10:04:11;20.80;76.10
24426;DHT22;12611;44.446;26.000;2022-10-12T10:06:42;20.80;74.30
24426;DHT22;12611;44.446;26.000;2022-10-12T10:09:28;20.80;73.50
24426;DHT22;12611;44.446;26.000;2022-10-12T10:11:56;20.90;73.70
24426;DHT22;12611;44.446;26.000;2022-10-12T10:14:25;20.90;73.80
24426;DHT22;12611;44.446;26.000;2022-10-12T10:16:53;21.00;73.60
24426;DHT22;12611;44.446;26.000;2022-10-12T10:19:24;21.00;73.60
24426;DHT22;12611;44.446;26.000;2022-10-12T10:21:53;21.10;72.40
24426;DHT22;12611;44.446;26.000;2022-10-12T10:24:25;21.10;72.60
24426;DHT22;12611;44.446;26.000;2022-10-12T10:26:56;21.20;72.80
24426;DHT22;12611;44.446;26.000;2022-10-12T10:29:34;21.20;72.50
24426;DHT22;12611;44.446;26.000;2022-10-12T10:32:16;21.20;72.20
24426;DHT22;12611;44.446;26.000;2022-10-12T10:35:02;21.30;71.70
24426;DHT22;12611;44.446;26.000;2022-10-12T10:37:32;21.30;71.40
24426;DHT22;12611;44.446;26.000;2022-10-12T10:40:01;21.20;70.90
24426;DHT22;12611;44.446;26.000;2022-10-12T10:42:31;21.30;70.80
24426;DHT22;12611;44.446;26.000;2022-10-12T10:45:03;21.30;70.70
24426;DHT22;12611;44.446;26.000;2022-10-12T10:47:39;21.30;70.20
24426;DHT22;12611;44.446;26.000;2022-10-12T10:50:23;21.30;70.00
24426;DHT22;12611;44.446;26.000;2022-10-12T10:52:55;21.40;68.90
24426;DHT22;12611;44.446;26.000;2022-10-12T10:55:28;21.40;68.70
24426;DHT22;12611;44.446;26.000;2022-10-12T10:58:02;21.50;68.50
24426;DHT22;12611;44.446;26.000;2022-10-12T11:00:32;21.50;68.20
24426;DHT22;12611;44.446;26.000;2022-10-12T11:03:13;21.60;68.30
24426;DHT22;12611;44.446;26.000;2022-10-12T11:05:52;21.60;67.80
24426;DHT22;12611;44.446;26.000;2022-10-12T11:08:24;21.70;66.50
24426;DHT22;12611;44.446;26.000;2022-10-12T11:10:56;21.80;65.30
24426;DHT22;12611;44.446;26.000;2022-10-12T11:13:31;21.80;64.60
24426;DHT22;12611;44.446;26.000;2022-10-12T11:16:03;21.90;63.40
24426;DHT22;12611;44.446;26.000;2022-10-12T11:18:38;22.00;62.90
24426;DHT22;12611;44.446;26.000;2022-10-12T11:21:12;22.00;62.60
24426;DHT22;12611;44.446;26.000;2022-10-12T11:23:46;22.10;62.80
24426;DHT22;12611;44.446;26.000;2022-10-12T11:26:23;22.20;63.00
24426;DHT22;12611;44.446;26.000;2022-10-12T11:28:57;22.30;58.50
24426;DHT22;12611;44.446;26.000;2022-10-12T11:31:30;22.20;57.80
24426;DHT22;12611;44.446;26.000;2022-10-12T11:34:00;22.30;58.40
24426;DHT22;12611;44.446;26.000;2022-10-12T11:36:41;22.30;58.30
24426;DHT22;12611;44.446;26.000;2022-10-12T11:39:35;22.30;58.70
24426;DHT22;12611;44.446;26.000;2022-10-12T11:42:06;22.30;59.20
24426;DHT22;12611;44.446;26.000;2022-10-12T11:44:52;22.30;58.90
24426;DHT22;12611;44.446;26.000;2022-10-12T11:47:30;22.30;58.00
24426;DHT22;12611;44.446;26.000;2022-10-12T11:50:02;22.30;57.60
24426;DHT22;12611;44.446;26.000;2022-10-12T11:52:36;22.30;58.20
24426;DHT22;12611;44.446;26.000;2022-10-12T11:55:24;22.30;58.20
24426;DHT22;12611;44.446;26.000;2022-10-12T11:57:56;22.30;58.50
24426;DHT22;12611;44.446;26.000;2022-10-12T12:00:30;22.30;58.80
24426;DHT22;12611;44.446;26.000;2022-10-12T12:03:17;22.40;59.00
24426;DHT22;12611;44.446;26.000;2022-10-12T12:05:46;22.40;58.90
24426;DHT22;12611;44.446;26.000;2022-10-12T12:08:24;22.40;57.80
24426;DHT22;12611;44.446;26.000;2022-10-12T12:11:19;22.40;57.80
24426;DHT22;12611;44.446;26.000;2022-10-12T12:13:48;22.40;58.00
24426;DHT22;12611;44.446;26.000;2022-10-12T12:16:29;22.40;57.50
24426;DHT22;12611;44.446;26.000;2022-10-12T12:19:35;22.50;57.80
24426;DHT22;12611;44.446;26.000;2022-10-12T12:22:31;22.50;57.40
24426;DHT22;12611;44.446;26.000;2022-10-12T12:25:21;22.50;57.50
24426;DHT22;12611;44.446;26.000;2022-10-12T12:27:52;22.50;57.80
24426;DHT22;12611;44.446;26.000;2022-10-12T12:30:39;22.50;57.90
24426;DHT22;12611;44.446;26.000;2022-10-12T12:33:30;22.50;57.80
24426;DHT22;12611;44.446;26.000;2022-10-12T12:36:03;22.60;57.80
24426;DHT22;12611;44.446;26.000;2022-10-12T12:38:33;22.50;58.00
24426;DHT22;12611;44.446;26.000;2022-10-12T12:41:07;22.60;58.20
24426;DHT22;12611;44.446;26.000;2022-10-12T12:43:54;22.60;58.00
24426;DHT22;12611;44.446;26.000;2022-10-12T12:46:26;22.50;58.00
24426;DHT22;12611;44.446;26.000;2022-10-12T12:49:27;22.50;58.00
24426;DHT22;12611;44.446;26.000;2022-10-12T12:51:56;22.60;58.10
24426;DHT22;12611;44.446;26.000;2022-10-12T12:54:26;22.60;58.20
24426;DHT22;12611;44.446;26.000;2022-10-12T12:57:22;22.60;58.30
24426;DHT22;12611;44.446;26.000;2022-10-12T13:00:17;22.60;58.30
24426;DHT22;12611;44.446;26.000;2022-10-12T13:06:14;22.70;57.80
24426;DHT22;12611;44.446;26.000;2022-10-12T13:12:09;22.70;57.70
24426;DHT22;12611;44.446;26.000;2022-10-12T13:14:55;22.80;57.80
24426;DHT22;12611;44.446;26.000;2022-10-12T13:20:49;22.80;57.80
24426;DHT22;12611;44.446;26.000;2022-10-12T13:23:20;22.90;57.60
24426;DHT22;12611;44.446;26.000;2022-10-12T13:25:52;23.00;57.50
24426;DHT22;12611;44.446;26.000;2022-10-12T13:28:25;23.00;57.30
24426;DHT22;12611;44.446;26.000;2022-10-12T13:30:59;23.00;57.00
24426;DHT22;12611;44.446;26.000;2022-10-12T13:33:31;23.10;57.10
24426;DHT22;12611;44.446;26.000;2022-10-12T13:36:03;23.10;56.80
24426;DHT22;12611;44.446;26.000;2022-10-12T13:38:36;23.10;56.80
24426;DHT22;12611;44.446;26.000;2022-10-12T13:41:07;23.10;56.90
24426;DHT22;12611;44.446;26.000;2022-10-12T13:43:41;23.10;57.10
24426;DHT22;12611;44.446;26.000;2022-10-12T13:46:14;23.10;56.80
24426;DHT22;12611;44.446;26.000;2022-10-12T13:49:01;23.10;56.90
24426;DHT22;12611;44.446;26.000;2022-10-12T13:51:30;23.10;57.20
24426;DHT22;12611;44.446;26.000;2022-10-12T13:53:58;23.10;57.30
24426;DHT22;12611;44.446;26.000;2022-10-12T13:56:27;23.00;57.10
24426;DHT22;12611;44.446;26.000;2022-10-12T13:58:58;23.00;57.10
24426;DHT22;12611;44.446;26.000;2022-10-12T14:01:47;23.00;57.30
24426;DHT22;12611;44.446;26.000;2022-10-12T14:04:15;22.90;57.30
24426;DHT22;12611;44.446;26.000;2022-10-12T14:06:47;22.90;57.50
24426;DHT22;12611;44.446;26.000;2022-10-12T14:09:20;22.90;57.60
24426;DHT22;12611;44.446;26.000;2022-10-12T14:11:50;22.80;57.50
24426;DHT22;12611;44.446;26.000;2022-10-12T14:14:30;22.80;57.90
24426;DHT22;12611;44.446;26.000;2022-10-12T14:17:00;22.80;57.80
24426;DHT22;12611;44.446;26.000;2022-10-12T14:19:42;22.70;57.90
24426;DHT22;12611;44.446;26.000;2022-10-12T14:22:19;22.70;57.90
24426;DHT22;12611;44.446;26.000;2022-10-12T14:24:49;22.70;57.90
24426;DHT22;12611;44.446;26.000;2022-10-12T14:27:44;22.70;58.10
24426;DHT22;12611;44.446;26.000;2022-10-12T14:30:18;22.70;58.20
24426;DHT22;12611;44.446;26.000;2022-10-12T14:32:49;22.60;58.10
24426;DHT22;12611;44.446;26.000;2022-10-12T14:35:26;22.60;57.80
24426;DHT22;12611;44.446;26.000;2022-10-12T14:37:55;22.60;58.00
24426;DHT22;12611;44.446;26.000;2022-10-12T14:40:29;22.60;58.20
24426;DHT22;12611;44.446;26.000;2022-10-12T14:43:00;22.50;58.40
24426;DHT22;12611;44.446;26.000;2022-10-12T14:45:31;22.50;58.50
24426;DHT22;12611;44.446;26.000;2022-10-12T14:48:01;22.50;58.80
24426;DHT22;12611;44.446;26.000;2022-10-12T14:50:31;22.50;58.90
24426;DHT22;12611;44.446;26.000;2022-10-12T14:53:02;22.40;58.90
24426;DHT22;12611;44.446;26.000;2022-10-12T14:55:32;22.50;59.00
24426;DHT22;12611;44.446;26.000;2022-10-12T14:58:01;22.40;59.00
24426;DHT22;12611;44.446;26.000;2022-10-12T15:00:31;22.40;59.00
24426;DHT22;12611;44.446;26.000;2022-10-12T15:03:02;22.30;59.10
24426;DHT22;12611;44.446;26.000;2022-10-12T15:05:32;22.30;59.20
24426;DHT22;12611;44.446;26.000;2022-10-12T15:08:01;22.30;59.30
24426;DHT22;12611;44.446;26.000;2022-10-12T15:10:34;22.20;59.40
24426;DHT22;12611;44.446;26.000;2022-10-12T15:13:03;22.20;59.50
24426;DHT22;12611;44.446;26.000;2022-10-12T15:15:35;22.20;59.60
24426;DHT22;12611;44.446;26.000;2022-10-12T15:18:06;22.20;59.70
24426;DHT22;12611;44.446;26.000;2022-10-12T15:20:35;22.10;59.70
24426;DHT22;12611;44.446;26.000;2022-10-12T15:23:03;22.10;59.80
24426;DHT22;12611;44.446;26.000;2022-10-12T15:25:39;22.00;60.00
24426;DHT22;12611;44.446;26.000;2022-10-12T15:28:08;22.00;60.20
24426;DHT22;12611;44.446;26.000;2022-10-12T15:30:36;21.90;60.20
24426;DHT22;12611;44.446;26.000;2022-10-12T15:33:27;21.80;60.60
24426;DHT22;12611;44.446;26.000;2022-10-12T15:35:55;21.80;60.60
24426;DHT22;12611;44.446;26.000;2022-10-12T15:38:24;21.70;60.60
24426;DHT22;12611;44.446;26.000;2022-10-12T15:40:52;21.70;60.90
24426;DHT22;12611;44.446;26.000;2022-10-12T15:43:24;21.60;60.90
24426;DHT22;12611;44.446;26.000;2022-10-12T15:45:52;21.50;60.90
24426;DHT22;12611;44.446;26.000;2022-10-12T15:48:22;21.50;61.10
24426;DHT22;12611;44.446;26.000;2022-10-12T15:50:52;21.40;61.10
24426;DHT22;12611;44.446;26.000;2022-10-12T15:53:22;21.30;61.30
24426;DHT22;12611;44.446;26.000;2022-10-12T15:55:51;21.30;61.40
24426;DHT22;12611;44.446;26.000;2022-10-12T15:58:20;21.30;61.60
24426;DHT22;12611;44.446;26.000;2022-10-12T16:00:49;21.20;61.70